Temp: 10.3°C   Baro: 1019.7mb
  Wind: 2.0mph   Dir: S (169°)
  Rain: 0.0mm (0.0mm/hr)
  Solar: 0W/m2  Hum: 90%
 
Bath Spa Weather Station Historical Data
Daily Summary for October 24, 2020 Units:  Both    English   Metric
Daily Weekly Monthly Yearly Custom
  High: Low: Average:
Temperature: 59.1 °F /  15.1 °C 43.5 °F /  6.4 °C 53.2 °F /  11.8 °C
Dew Point: 56.5 °F /  13.6 °C 41.2 °F /  5.1 °C 50.6 °F /  10.3 °C
Humidity: 92% 82% 88%
Wind Speed: 17.2mph /  27.7km/h - 5.7mph /  9.2km/h
Wind Gust: 32mph /  51.5km/h - -
Wind- - SW
Pressure: 29.80 in /  1009 hPa 29.33 in /  993.1 hPa -
Precipitation: 0.31 in /  7.87 mm    
Historical Graphs
 
 
Tabular Data for October 24, 2020
Time Temperature Dew Point Pressure Wind Wind Speed Wind Gust Humidity Rainfall Rate (Hourly) solar
00:04 43.5 °F /  6.4 °C 41.2 °F /  5.1 °C 29.80in /  1009hPa WSW 0.2mph /  0.3km/h 1mph /  1.6km/h 88% 0.00in /  0mm 0 W/m2
00:09 43.7 °F /  6.5 °C 41.5 °F /  5.3 °C 29.80in /  1009hPa WSW 0.4mph /  0.6km/h 2mph /  3.2km/h 88.8% 0.00in /  0mm 0 W/m2
00:14 43.9 °F /  6.6 °C 41.4 °F /  5.2 °C 29.80in /  1009hPa Calm   4mph /  6.4km/h 88% 0.00in /  0mm 0 W/m2
00:19 44.2 °F /  6.8 °C 41.9 °F /  5.5 °C 29.80in /  1009hPa Calm   4mph /  6.4km/h 88.6% 0.00in /  0mm 0 W/m2
00:24 44.4 °F /  6.9 °C 42.3 °F /  5.7 °C 29.80in /  1009hPa WSW 0.2mph /  0.3km/h 2mph /  3.2km/h 89% 0.00in /  0mm 0 W/m2
00:29 44.7 °F /  7.1 °C 42.2 °F /  5.7 °C 29.79in /  1008.7hPa WSW 0.4mph /  0.6km/h 2mph /  3.2km/h 88% 0.00in /  0mm 0 W/m2
00:34 44.9 °F /  7.2 °C 42.4 °F /  5.8 °C 29.79in /  1008.7hPa Calm   2mph /  3.2km/h 88% 0.00in /  0mm 0 W/m2
00:39 45 °F /  7.2 °C 42.5 °F /  5.8 °C 29.79in /  1008.7hPa Calm     88% 0.00in /  0mm 0 W/m2
00:44 45.1 °F /  7.3 °C 42.6 °F /  5.9 °C 29.79in /  1008.7hPa Calm   1mph /  1.6km/h 88% 0.00in /  0mm 0 W/m2
00:49 45.4 °F /  7.4 °C 42.9 °F /  6.1 °C 29.78in /  1008.4hPa WSW 1.7mph /  2.7km/h 4mph /  6.4km/h 88% 0.00in /  0mm 0 W/m2
00:54 45.9 °F /  7.7 °C 43.3 °F /  6.3 °C 29.78in /  1008.4hPa WSW 0.4mph /  0.6km/h 4mph /  6.4km/h 88% 0.00in /  0mm 0 W/m2
00:59 46.3 °F /  7.9 °C 43.6 °F /  6.4 °C 29.78in /  1008.4hPa WSW 0.8mph /  1.3km/h 4mph /  6.4km/h 87.2% 0.00in /  0mm 0 W/m2
01:04 46.9 °F /  8.3 °C 44 °F /  6.7 °C 29.78in /  1008.4hPa SW 3.5mph /  5.6km/h 8mph /  12.9km/h 86.4% 0.00in /  0mm 0 W/m2
01:09 47.5 °F /  8.6 °C 44.2 °F /  6.8 °C 29.78in /  1008.4hPa SSW 3.2mph /  5.1km/h 8mph /  12.9km/h 85.4% 0.00in /  0mm 0 W/m2
01:14 47.8 °F /  8.8 °C 44.4 °F /  6.9 °C 29.78in /  1008.4hPa SSW 3.2mph /  5.1km/h 8mph /  12.9km/h 85% 0.00in /  0mm 0 W/m2
01:19 48 °F /  8.9 °C 44.6 °F /  7 °C 29.78in /  1008.4hPa SSW 3.9mph /  6.3km/h 9mph /  14.5km/h 85% 0.00in /  0mm 0 W/m2
01:24 48 °F /  8.9 °C 44.6 °F /  7 °C 29.78in /  1008.4hPa SSW 2mph /  3.2km/h 8mph /  12.9km/h 85% 0.00in /  0mm 0 W/m2
01:29 47.9 °F /  8.8 °C 44.5 °F /  6.9 °C 29.78in /  1008.4hPa SSW 1.7mph /  2.7km/h 7mph /  11.3km/h 85% 0.00in /  0mm 0 W/m2
01:34 47.8 °F /  8.8 °C 44.6 °F /  7 °C 29.78in /  1008.4hPa SSW 0.2mph /  0.3km/h 5mph /  8km/h 85.6% 0.00in /  0mm 0 W/m2
01:39 47.7 °F /  8.7 °C 44.6 °F /  7 °C 29.78in /  1008.4hPa SW 2mph /  3.2km/h 8mph /  12.9km/h 86% 0.00in /  0mm 0 W/m2
01:44 47.7 °F /  8.7 °C 44.6 °F /  7 °C 29.77in /  1008hPa SSW 2mph /  3.2km/h 5mph /  8km/h 86% 0.00in /  0mm 0 W/m2
01:49 47.5 °F /  8.6 °C 44.4 °F /  6.9 °C 29.78in /  1008.4hPa SSW 3.2mph /  5.1km/h 5mph /  8km/h 86% 0.00in /  0mm 0 W/m2
01:54 47.6 °F /  8.7 °C 44.5 °F /  6.9 °C 29.77in /  1008hPa SW 1.7mph /  2.7km/h 7mph /  11.3km/h 86% 0.00in /  0mm 0 W/m2
01:59 47.7 °F /  8.7 °C 44.6 °F /  7 °C 29.77in /  1008hPa WSW 0.2mph /  0.3km/h 4mph /  6.4km/h 86% 0.00in /  0mm 0 W/m2
02:04 47.7 °F /  8.7 °C 44.6 °F /  7 °C 29.77in /  1008hPa SW 1.7mph /  2.7km/h 6mph /  9.7km/h 86% 0.00in /  0mm 0 W/m2
02:09 47.8 °F /  8.8 °C 44.7 °F /  7.1 °C 29.76in /  1007.7hPa SSW 2.3mph /  3.7km/h 6mph /  9.7km/h 86% 0.00in /  0mm 0 W/m2
02:14 47.9 °F /  8.8 °C 44.9 °F /  7.2 °C 29.76in /  1007.7hPa SSW 2.2mph /  3.5km/h 6mph /  9.7km/h 86% 0.00in /  0mm 0 W/m2
02:19 48.1 °F /  8.9 °C 45.2 °F /  7.3 °C 29.76in /  1007.7hPa SW 3.2mph /  5.1km/h 6mph /  9.7km/h 86.8% 0.00in /  0mm 0 W/m2
02:24 48.2 °F /  9 °C 45.2 °F /  7.3 °C 29.76in /  1007.7hPa SW 0.4mph /  0.6km/h 4mph /  6.4km/h 86.6% 0.00in /  0mm 0 W/m2
02:29 48 °F /  8.9 °C 45.1 °F /  7.3 °C 29.75in /  1007.3hPa Calm   1mph /  1.6km/h 87% 0.00in /  0mm 0 W/m2
02:34 48 °F /  8.9 °C 45.1 °F /  7.3 °C 29.75in /  1007.3hPa SW 0.2mph /  0.3km/h 3mph /  4.8km/h 87% 0.00in /  0mm 0 W/m2
02:39 48 °F /  8.9 °C 45.1 °F /  7.3 °C 29.75in /  1007.3hPa South 0.6mph /  1km/h 5mph /  8km/h 87% 0.00in /  0mm 0 W/m2
02:44 48 °F /  8.9 °C 45.1 °F /  7.3 °C 29.75in /  1007.3hPa SSE 0.6mph /  1km/h 3mph /  4.8km/h 87% 0.00in /  0mm 0 W/m2
02:49 48 °F /  8.9 °C 45.1 °F /  7.3 °C 29.75in /  1007.3hPa SSE 1.3mph /  2.1km/h 3mph /  4.8km/h 87% 0.00in /  0mm 0 W/m2
02:54 48 °F /  8.9 °C 45.1 °F /  7.3 °C 29.74in /  1007hPa SSE 0.5mph /  0.8km/h 3mph /  4.8km/h 87% 0.00in /  0mm 0 W/m2
02:59 48 °F /  8.9 °C 45.1 °F /  7.3 °C 29.73in /  1006.7hPa Calm   2mph /  3.2km/h 87% 0.00in /  0mm 0 W/m2
03:04 47.8 °F /  8.8 °C 44.9 °F /  7.2 °C 29.73in /  1006.7hPa Calm   1mph /  1.6km/h 87% 0.00in /  0mm 0 W/m2
03:09 47.5 °F /  8.6 °C 44.8 °F /  7.1 °C 29.73in /  1006.7hPa Calm   3mph /  4.8km/h 87% 0.00in /  0mm 0 W/m2
03:14 47.1 °F /  8.4 °C 44.4 °F /  6.9 °C 29.73in /  1006.7hPa South 0.2mph /  0.3km/h 2mph /  3.2km/h 87% 0.00in /  0mm 0 W/m2
03:19 47.4 °F /  8.6 °C 44.8 °F /  7.1 °C 29.73in /  1006.7hPa West 1mph /  1.6km/h 3mph /  4.8km/h 87.6% 0.00in /  0mm 0 W/m2
03:24 47.7 °F /  8.7 °C 45.1 °F /  7.3 °C 29.73in /  1006.7hPa WNW 0.2mph /  0.3km/h 3mph /  4.8km/h 88% 0.00in /  0mm 0 W/m2
03:29 47.7 °F /  8.7 °C 45.1 °F /  7.3 °C 29.73in /  1006.7hPa WSW 0.8mph /  1.3km/h 4mph /  6.4km/h 88% 0.00in /  0mm 0 W/m2
03:34 47.9 °F /  8.8 °C 45.4 °F /  7.4 °C 29.73in /  1006.7hPa Calm   3mph /  4.8km/h 88% 0.00in /  0mm 0 W/m2
03:39 48 °F /  8.9 °C 45.5 °F /  7.5 °C 29.72in /  1006.3hPa WSW 0.2mph /  0.3km/h 2mph /  3.2km/h 88% 0.00in /  0mm 0 W/m2
03:44 48 °F /  8.9 °C 45.5 °F /  7.5 °C 29.72in /  1006.3hPa SW 2mph /  3.2km/h 6mph /  9.7km/h 88% 0.00in /  0mm 0 W/m2
03:49 48.2 °F /  9 °C 45.7 °F /  7.6 °C 29.72in /  1006.3hPa South 1.7mph /  2.7km/h 4mph /  6.4km/h 88% 0.00in /  0mm 0 W/m2
03:54 48.2 °F /  9 °C 45.7 °F /  7.6 °C 29.71in /  1006hPa SW 1.6mph /  2.6km/h 6mph /  9.7km/h 88% 0.00in /  0mm 0 W/m2
03:59 48.4 °F /  9.1 °C 45.9 °F /  7.7 °C 29.71in /  1006hPa SW 2.2mph /  3.5km/h 6mph /  9.7km/h 88% 0.00in /  0mm 0 W/m2
04:04 48.6 °F /  9.2 °C 45.9 °F /  7.7 °C 29.71in /  1006hPa SW 5.9mph /  9.5km/h 10mph /  16.1km/h 87.4% 0.00in /  0mm 0 W/m2
04:09 49.1 °F /  9.5 °C 46.1 °F /  7.8 °C 29.71in /  1006hPa SW 7.3mph /  11.7km/h 12mph /  19.3km/h 86.4% 0.00in /  0mm 0 W/m2
04:14 49.5 °F /  9.7 °C 46.1 °F /  7.8 °C 29.72in /  1006.3hPa SSW 6.4mph /  10.3km/h 14mph /  22.5km/h 85.2% 0.00in /  0mm 0 W/m2
04:19 49.6 °F /  9.8 °C 46 °F /  7.8 °C 29.71in /  1006hPa SW 4.8mph /  7.7km/h 10mph /  16.1km/h 84.4% 0.00in /  0mm 0 W/m2
04:24 49.7 °F /  9.8 °C 45.9 °F /  7.7 °C 29.71in /  1006hPa SW 7.5mph /  12.1km/h 9mph /  14.5km/h 83.8% 0.00in /  0mm 0 W/m2
04:29 49.8 °F /  9.9 °C 45.7 °F /  7.6 °C 29.71in /  1006hPa SSW 6.5mph /  10.5km/h 13mph /  20.9km/h 83% 0.00in /  0mm 0 W/m2
04:34 50.1 °F /  10.1 °C 45.9 °F /  7.7 °C 29.71in /  1006hPa SW 7mph /  11.3km/h 11mph /  17.7km/h 83% 0.00in /  0mm 0 W/m2
04:39 50.3 °F /  10.2 °C 46 °F /  7.8 °C 29.70in /  1005.6hPa SW 7.9mph /  12.7km/h 11mph /  17.7km/h 82.8% 0.00in /  0mm 0 W/m2
04:44 50.4 °F /  10.2 °C 46.2 °F /  7.9 °C 29.70in /  1005.6hPa SW 5.5mph /  8.9km/h 12mph /  19.3km/h 82.5% 0.00in /  0mm 0 W/m2
04:49 50.5 °F /  10.3 °C 46.1 °F /  7.8 °C 29.70in /  1005.6hPa SSW 5.6mph /  9km/h 12mph /  19.3km/h 82% 0.00in /  0mm 0 W/m2
04:54 50.5 °F /  10.3 °C 46.2 °F /  7.9 °C 29.69in /  1005.3hPa SW 6.4mph /  10.3km/h 12mph /  19.3km/h 82% 0.00in /  0mm 0 W/m2
04:59 50.5 °F /  10.3 °C 46.2 °F /  7.9 °C 29.68in /  1005hPa SW 3.1mph /  5km/h 12mph /  19.3km/h 82% 0.00in /  0mm 0 W/m2
05:04 50.4 °F /  10.2 °C 46.1 °F /  7.8 °C 29.68in /  1005hPa SW 2.6mph /  4.2km/h 6mph /  9.7km/h 82% 0.00in /  0mm 0 W/m2
05:09 50.5 °F /  10.3 °C 46.2 °F /  7.9 °C 29.68in /  1005hPa SW 0.6mph /  1km/h 5mph /  8km/h 82.2% 0.00in /  0mm 0 W/m2
05:14 50.5 °F /  10.3 °C 46.3 °F /  7.9 °C 29.68in /  1005hPa Calm     83% 0.00in /  0mm 0 W/m2
05:19 50.4 °F /  10.2 °C 46.3 °F /  7.9 °C 29.68in /  1005hPa Calm   3mph /  4.8km/h 83% 0.00in /  0mm 0 W/m2
05:24 50.6 °F /  10.3 °C 46.5 °F /  8.1 °C 29.68in /  1005hPa SSE 0.4mph /  0.6km/h 5mph /  8km/h 83% 0.00in /  0mm 0 W/m2
05:29 50.9 °F /  10.5 °C 46.8 °F /  8.2 °C 29.68in /  1005hPa SSW 1.6mph /  2.6km/h 6mph /  9.7km/h 83% 0.00in /  0mm 0 W/m2
05:34 51.1 °F /  10.6 °C 46.9 °F /  8.3 °C 29.67in /  1004.6hPa South 0.9mph /  1.4km/h 5mph /  8km/h 83% 0.00in /  0mm 0 W/m2
05:39 51.3 °F /  10.7 °C 47.1 °F /  8.4 °C 29.67in /  1004.6hPa South 3.4mph /  5.5km/h 7mph /  11.3km/h 83% 0.00in /  0mm 0 W/m2
05:44 51.4 °F /  10.8 °C 47.3 °F /  8.5 °C 29.67in /  1004.6hPa South 1.6mph /  2.6km/h 7mph /  11.3km/h 83% 0.00in /  0mm 0 W/m2
05:49 51.6 °F /  10.9 °C 47.5 °F /  8.6 °C 29.66in /  1004.3hPa SSE 1.6mph /  2.6km/h 6mph /  9.7km/h 83% 0.00in /  0mm 0 W/m2
05:54 51.6 °F /  10.9 °C 47.5 °F /  8.6 °C 29.66in /  1004.3hPa ESE 2.5mph /  4km/h 5mph /  8km/h 83% 0.00in /  0mm 0 W/m2
05:59 51.6 °F /  10.9 °C 47.5 °F /  8.6 °C 29.66in /  1004.3hPa SE 2.9mph /  4.7km/h 7mph /  11.3km/h 83% 0.00in /  0mm 0 W/m2
06:04 51.4 °F /  10.8 °C 47.4 °F /  8.6 °C 29.65in /  1003.9hPa SE 3.4mph /  5.5km/h 9mph /  14.5km/h 83.2% 0.00in /  0mm 0 W/m2
06:09 51.4 °F /  10.8 °C 47.6 °F /  8.7 °C 29.65in /  1003.9hPa ESE 4mph /  6.4km/h 8mph /  12.9km/h 83.8% 0.00in /  0mm 0 W/m2
06:14 51.4 °F /  10.8 °C 47.7 °F /  8.7 °C 29.65in /  1003.9hPa SSE 2.2mph /  3.5km/h 7mph /  11.3km/h 84% 0.00in /  0mm 0 W/m2
06:19 51.6 °F /  10.9 °C 47.8 °F /  8.8 °C 29.65in /  1003.9hPa SE 2.5mph /  4km/h 5mph /  8km/h 84% 0.00in /  0mm 0 W/m2
06:24 51.6 °F /  10.9 °C 47.8 °F /  8.8 °C 29.64in /  1003.6hPa ESE 3.3mph /  5.3km/h 9mph /  14.5km/h 84% 0.00in /  0mm 0 W/m2
06:29 52.1 °F /  11.2 °C 48.7 °F /  9.3 °C 29.64in /  1003.6hPa SSE 2mph /  3.2km/h 6mph /  9.7km/h 85% 0.00in /  0mm 0 W/m2
06:34 52.2 °F /  11.2 °C 48.7 °F /  9.3 °C 29.64in /  1003.6hPa SSE 3.3mph /  5.3km/h 9mph /  14.5km/h 85% 0.00in /  0mm 0 W/m2
06:39 52.5 °F /  11.4 °C 49.1 °F /  9.5 °C 29.63in /  1003.3hPa SSE 2mph /  3.2km/h 9mph /  14.5km/h 85% 0.00in /  0mm 0 W/m2
06:44 52.5 °F /  11.4 °C 49.1 °F /  9.5 °C 29.63in /  1003.3hPa SSE 2.4mph /  3.9km/h 7mph /  11.3km/h 85% 0.00in /  0mm 0 W/m2
06:49 52.9 °F /  11.6 °C 49.5 °F /  9.7 °C 29.62in /  1002.9hPa South 4.2mph /  6.8km/h 14mph /  22.5km/h 85% 0.00in /  0mm 0 W/m2
06:54 53.3 °F /  11.8 °C 49.8 °F /  9.9 °C 29.62in /  1002.9hPa South 6.4mph /  10.3km/h 17mph /  27.4km/h 85.4% 0.00in /  0mm 0 W/m2
06:59 53.5 °F /  11.9 °C 49.9 °F /  9.9 °C 29.61in /  1002.6hPa SSW 4.1mph /  6.6km/h 8mph /  12.9km/h 85% 0.00in /  0mm 0 W/m2
07:04 53.7 °F /  12.1 °C 50.5 °F /  10.3 °C 29.62in /  1002.9hPa SSW 4.8mph /  7.7km/h 13mph /  20.9km/h 86% 0.00in /  0mm 0 W/m2
07:09 53.6 °F /  12 °C 50.4 °F /  10.2 °C 29.61in /  1002.6hPa SSW 5mph /  8km/h 11mph /  17.7km/h 86% 0.00in /  0mm 0 W/m2
07:14 53.4 °F /  11.9 °C 50.5 °F /  10.3 °C 29.61in /  1002.6hPa SSW 6mph /  9.7km/h 16mph /  25.7km/h 87% 0.00in /  0mm 0 W/m2
07:19 53.2 °F /  11.8 °C 50.5 °F /  10.3 °C 29.61in /  1002.6hPa West 5.1mph /  8.2km/h 14mph /  22.5km/h 87.2% 0.00in /  0mm 0 W/m2
07:24 53.2 °F /  11.8 °C 50.7 °F /  10.4 °C 29.61in /  1002.6hPa SSW 3mph /  4.8km/h 15mph /  24.1km/h 88% 0.00in /  0mm 0 W/m2
07:29 53.4 °F /  11.9 °C 50.9 °F /  10.5 °C 29.61in /  1002.6hPa SW 4.2mph /  6.8km/h 13mph /  20.9km/h 88% 0.00in /  0mm 0 W/m2
07:34 53.7 °F /  12.1 °C 51.2 °F /  10.7 °C 29.61in /  1002.6hPa SW 7.8mph /  12.6km/h 14mph /  22.5km/h 88% 0.00in /  0mm 0 W/m2
07:39 53.8 °F /  12.1 °C 51.3 °F /  10.7 °C 29.60in /  1002.3hPa SW 7mph /  11.3km/h 15mph /  24.1km/h 88% 0.00in /  0mm 0 W/m2
07:44 54 °F /  12.2 °C 51.1 °F /  10.6 °C 29.60in /  1002.3hPa SW 6.2mph /  10km/h 20mph /  32.2km/h 87.2% 0.00in /  0mm 0 W/m2
07:49 54.2 °F /  12.3 °C 51.3 °F /  10.7 °C 29.60in /  1002.3hPa SW 8.8mph /  14.2km/h 21mph /  33.8km/h 86.8% 0.00in /  0mm 0 W/m2
07:54 54.3 °F /  12.4 °C 51.1 °F /  10.6 °C 29.60in /  1002.3hPa SW 11.6mph /  18.7km/h 22mph /  35.4km/h 85.8% 0.00in /  0mm 0 W/m2
07:59 54.7 °F /  12.6 °C 51.1 °F /  10.6 °C 29.60in /  1002.3hPa WSW 12.5mph /  20.1km/h 23mph /  37km/h 85% 0.00in /  0mm 0 W/m2
08:04 54.7 °F /  12.6 °C 51.1 °F /  10.6 °C 29.60in /  1002.3hPa SW 10.4mph /  16.7km/h 21mph /  33.8km/h 85% 0.00in /  0mm 0 W/m2
08:09 54.7 °F /  12.6 °C 51.1 °F /  10.6 °C 29.60in /  1002.3hPa SSW 7.9mph /  12.7km/h 18mph /  29km/h 85% 0.00in /  0mm 7 W/m2
08:13 54.7 °F /  12.6 °C 51.1 °F /  10.6 °C 29.59in /  1001.9hPa SSW 7.5mph /  12.1km/h 13mph /  20.9km/h 85% 0.00in /  0mm 11 W/m2
08:19 54.7 °F /  12.6 °C 51.1 °F /  10.6 °C 29.59in /  1001.9hPa SSW 9.6mph /  15.4km/h 17mph /  27.4km/h 85% 0.00in /  0mm 12 W/m2
08:24 54.8 °F /  12.7 °C 51.2 °F /  10.7 °C 29.59in /  1001.9hPa SW 8.4mph /  13.5km/h 18mph /  29km/h 85% 0.00in /  0mm 19 W/m2
08:29 54.9 °F /  12.7 °C 51.3 °F /  10.7 °C 29.59in /  1001.9hPa SW 10mph /  16.1km/h 22mph /  35.4km/h 85% 0.00in /  0mm 25 W/m2
08:34 55 °F /  12.8 °C 51.3 °F /  10.7 °C 29.59in /  1001.9hPa SW 12.3mph /  19.8km/h 22mph /  35.4km/h 85% 0.00in /  0mm 25 W/m2
08:39 55 °F /  12.8 °C 51.4 °F /  10.8 °C 29.59in /  1001.9hPa SW 9mph /  14.5km/h 22mph /  35.4km/h 85% 0.00in /  0mm 26 W/m2
08:44 55.1 °F /  12.8 °C 51.5 °F /  10.8 °C 29.59in /  1001.9hPa SSW 11.4mph /  18.3km/h 23mph /  37km/h 85% 0.00in /  0mm 25 W/m2
08:49 55.2 °F /  12.9 °C 51.6 °F /  10.9 °C 29.59in /  1001.9hPa SSW 8.6mph /  13.8km/h 20mph /  32.2km/h 85% 0.00in /  0mm 25 W/m2
08:54 55.2 °F /  12.9 °C 51.6 °F /  10.9 °C 29.59in /  1001.9hPa SSW 8.8mph /  14.2km/h 20mph /  32.2km/h 85% 0.00in /  0mm 21 W/m2
08:59 55.2 °F /  12.9 °C 51.6 °F /  10.9 °C 29.59in /  1001.9hPa SSW 10.4mph /  16.7km/h 17mph /  27.4km/h 85% 0.00in /  0mm 25 W/m2
09:04 55.2 °F /  12.9 °C 51.8 °F /  11 °C 29.59in /  1001.9hPa SSW 8mph /  12.9km/h 18mph /  29km/h 85.6% 0.00in /  0mm 32 W/m2
09:09 55 °F /  12.8 °C 51.9 °F /  11.1 °C 29.58in /  1001.6hPa SSW 6.6mph /  10.6km/h 16mph /  25.7km/h 86.2% 0.00in /  0mm 32 W/m2
09:14 54.9 °F /  12.7 °C 52.1 °F /  11.2 °C 29.58in /  1001.6hPa SSW 8.2mph /  13.2km/h 14mph /  22.5km/h 87% 0.00in /  0mm 32 W/m2
09:19 55 °F /  12.8 °C 52.2 °F /  11.2 °C 29.58in /  1001.6hPa South 7.7mph /  12.4km/h 15mph /  24.1km/h 87% 0.00in /  0mm 39 W/m2
09:24 55 °F /  12.8 °C 52.2 °F /  11.2 °C 29.58in /  1001.6hPa SSW 5.9mph /  9.5km/h 15mph /  24.1km/h 87% 0.00in /  0mm 33 W/m2
09:29 55 °F /  12.8 °C 52.5 °F /  11.4 °C 29.58in /  1001.6hPa South 8.9mph /  14.3km/h 20mph /  32.2km/h 88% 0.00in /  0mm 33 W/m2
09:34 55.2 °F /  12.9 °C 52.7 °F /  11.5 °C 29.58in /  1001.6hPa SSW 7.1mph /  11.4km/h 21mph /  33.8km/h 88% 0.00in /  0mm 42 W/m2
09:39 55.2 °F /  12.9 °C 52.7 °F /  11.5 °C 29.57in /  1001.2hPa SSW 7.8mph /  12.6km/h 16mph /  25.7km/h 88% 0.00in /  0mm 58 W/m2
09:44 55.2 °F /  12.9 °C 52.7 °F /  11.5 °C 29.57in /  1001.2hPa SSW 10.4mph /  16.7km/h 22mph /  35.4km/h 88.2% 0.00in /  0mm 70 W/m2
09:49 55.2 °F /  12.9 °C 52.9 °F /  11.6 °C 29.57in /  1001.2hPa SW 11.4mph /  18.3km/h 26mph /  41.8km/h 89% 0.00in /  0mm 62 W/m2
09:53 55.3 °F /  12.9 °C 53 °F /  11.7 °C 29.57in /  1001.2hPa South 8mph /  12.9km/h 19mph /  30.6km/h 89% 0.00in /  0mm 72 W/m2
09:59 55.2 °F /  12.9 °C 53.1 °F /  11.7 °C 29.57in /  1001.2hPa SSW 12mph /  19.3km/h 19mph /  30.6km/h 89.6% 0.00in /  0mm 77 W/m2
10:04 55.5 °F /  13.1 °C 53.5 °F /  11.9 °C 29.57in /  1001.2hPa SSW 7mph /  11.3km/h 25mph /  40.2km/h 90% 0.00in /  0mm 51 W/m2
10:09 55.6 °F /  13.1 °C 53.6 °F /  12 °C 29.57in /  1001.2hPa SSW 6.6mph /  10.6km/h 16mph /  25.7km/h 90% 0.00in /  0mm 42 W/m2
10:14 55.6 °F /  13.1 °C 53.6 °F /  12 °C 29.57in /  1001.2hPa SSW 8.6mph /  13.8km/h 22mph /  35.4km/h 90% 0.00in /  0mm 35 W/m2
10:19 55.6 °F /  13.1 °C 53.6 °F /  12 °C 29.57in /  1001.2hPa SSW 6.1mph /  9.8km/h 16mph /  25.7km/h 90% 0.00in /  0mm 49 W/m2
10:24 55.6 °F /  13.1 °C 53.6 °F /  12 °C 29.56in /  1000.9hPa South 11.6mph /  18.7km/h 16mph /  25.7km/h 90% 0.00in /  0mm 60 W/m2
10:29 55.6 °F /  13.1 °C 54 °F /  12.2 °C 29.55in /  1000.6hPa SSW 7.8mph /  12.6km/h 16mph /  25.7km/h 91% 0.00in /  0mm 74 W/m2
10:34 55.6 °F /  13.1 °C 54 °F /  12.2 °C 29.56in /  1000.9hPa SSW 9mph /  14.5km/h 25mph /  40.2km/h 91% 0.00in /  0mm 62 W/m2
10:39 55.8 °F /  13.2 °C 54.1 °F /  12.3 °C 29.56in /  1000.9hPa SSW 7.1mph /  11.4km/h 14mph /  22.5km/h 91% 0.00in /  0mm 51 W/m2
10:44 55.8 °F /  13.2 °C 54.1 °F /  12.3 °C 29.55in /  1000.6hPa South 6.2mph /  10km/h 15mph /  24.1km/h 91% 0.00in /  0mm 37 W/m2
10:49 55.8 °F /  13.2 °C 54.1 °F /  12.3 °C 29.56in /  1000.9hPa SSW 9.8mph /  15.8km/h 15mph /  24.1km/h 91% 0.00in /  0mm 37 W/m2
10:54 55.8 °F /  13.2 °C 54.1 °F /  12.3 °C 29.55in /  1000.6hPa SSW 8.9mph /  14.3km/h 19mph /  30.6km/h 91% 0.00in /  0mm 35 W/m2
10:59 55.9 °F /  13.3 °C 54.2 °F /  12.3 °C 29.55in /  1000.6hPa SSW 7.2mph /  11.6km/h 15mph /  24.1km/h 91% 0.00in /  0mm 44 W/m2
11:03 55.9 °F /  13.3 °C 54.3 °F /  12.4 °C 29.55in /  1000.6hPa SSW 6.8mph /  10.9km/h 16mph /  25.7km/h 91% 0.00in /  0mm 51 W/m2
11:09 55.9 °F /  13.3 °C 54.3 °F /  12.4 °C 29.55in /  1000.6hPa SSW 6.4mph /  10.3km/h 17mph /  27.4km/h 91% 0.00in /  0mm 30 W/m2
11:14 56.1 °F /  13.4 °C 54.5 °F /  12.5 °C 29.55in /  1000.6hPa SW 8mph /  12.9km/h 15mph /  24.1km/h 91% 0.00in /  0mm 37 W/m2
11:19 56.1 °F /  13.4 °C 54.5 °F /  12.5 °C 29.54in /  1000.2hPa SSW 7.2mph /  11.6km/h 14mph /  22.5km/h 91% 0.00in /  0mm 53 W/m2
11:24 56.3 °F /  13.5 °C 54.7 °F /  12.6 °C 29.53in /  999.9hPa SSW 9.4mph /  15.1km/h 14mph /  22.5km/h 91% 0.00in /  0mm 58 W/m2
11:29 56.5 °F /  13.6 °C 54.9 °F /  12.7 °C 29.53in /  999.9hPa SSW 6.4mph /  10.3km/h 14mph /  22.5km/h 91% 0.00in /  0mm 54 W/m2
11:34 56.5 °F /  13.6 °C 54.9 °F /  12.7 °C 29.53in /  999.9hPa SSW 7.5mph /  12.1km/h 15mph /  24.1km/h 91% 0.00in /  0mm 46 W/m2
11:39 56.7 °F /  13.7 °C 55 °F /  12.8 °C 29.53in /  999.9hPa SSW 7.5mph /  12.1km/h 18mph /  29km/h 91% 0.00in /  0mm 62 W/m2
11:44 56.7 °F /  13.7 °C 54.8 °F /  12.7 °C 29.53in /  999.9hPa SW 6mph /  9.7km/h 15mph /  24.1km/h 90.2% 0.00in /  0mm 62 W/m2
11:49 56.8 °F /  13.8 °C 55.1 °F /  12.8 °C 29.53in /  999.9hPa SSW 12mph /  19.3km/h 22mph /  35.4km/h 90.6% 0.00in /  0mm 47 W/m2
11:54 57 °F /  13.9 °C 55 °F /  12.8 °C 29.52in /  999.5hPa SSW 7mph /  11.3km/h 16mph /  25.7km/h 90% 0.00in /  0mm 70 W/m2
11:59 57 °F /  13.9 °C 55 °F /  12.8 °C 29.52in /  999.5hPa SSW 6.9mph /  11.1km/h 19mph /  30.6km/h 90% 0.00in /  0mm 69 W/m2
12:04 57 °F /  13.9 °C 55 °F /  12.8 °C 29.52in /  999.5hPa SW 5.6mph /  9km/h 12mph /  19.3km/h 90% 0.00in /  0mm 54 W/m2
12:09 57 °F /  13.9 °C 55 °F /  12.8 °C 29.52in /  999.5hPa SSW 5.8mph /  9.3km/h 14mph /  22.5km/h 90% 0.00in /  0mm 74 W/m2
12:14 57 °F /  13.9 °C 55.1 °F /  12.8 °C 29.51in /  999.2hPa SSW 6.3mph /  10.1km/h 17mph /  27.4km/h 90.6% 0.00in /  0mm 88 W/m2
12:19 57.3 °F /  14.1 °C 55.3 °F /  12.9 °C 29.51in /  999.2hPa SSW 7.7mph /  12.4km/h 18mph /  29km/h 90.2% 0.00in /  0mm 93 W/m2
12:24 57.5 °F /  14.2 °C 55.5 °F /  13.1 °C 29.51in /  999.2hPa SSW 6.3mph /  10.1km/h 17mph /  27.4km/h 90% 0.00in /  0mm 91 W/m2
12:29 57.7 °F /  14.3 °C 55.8 °F /  13.2 °C 29.51in /  999.2hPa SSW 7.3mph /  11.7km/h 12mph /  19.3km/h 90% 0.00in /  0mm 109 W/m2
12:34 57.7 °F /  14.3 °C 55.8 °F /  13.2 °C 29.50in /  998.9hPa South 8.4mph /  13.5km/h 15mph /  24.1km/h 90% 0.00in /  0mm 95 W/m2
12:39 57.9 °F /  14.4 °C 55.7 °F /  13.2 °C 29.50in /  998.9hPa SSW 11.2mph /  18km/h 20mph /  32.2km/h 89.2% 0.00in /  0mm 109 W/m2
12:44 58.1 °F /  14.5 °C 55.8 °F /  13.2 °C 29.50in /  998.9hPa SW 9.7mph /  15.6km/h 21mph /  33.8km/h 89% 0.00in /  0mm 135 W/m2
12:49 58.3 °F /  14.6 °C 55.9 °F /  13.3 °C 29.49in /  998.5hPa SSW 8.6mph /  13.8km/h 15mph /  24.1km/h 89% 0.00in /  0mm 142 W/m2
12:54 58.5 °F /  14.7 °C 55.9 °F /  13.3 °C 29.49in /  998.5hPa South 8.2mph /  13.2km/h 19mph /  30.6km/h 88.4% 0.00in /  0mm 118 W/m2
12:59 58.3 °F /  14.6 °C 55.8 °F /  13.2 °C 29.49in /  998.5hPa SSW 7.4mph /  11.9km/h 19mph /  30.6km/h 88.6% 0.00in /  0mm 105 W/m2
13:04 58.1 °F /  14.5 °C 55.7 °F /  13.2 °C 29.48in /  998.2hPa South 8mph /  12.9km/h 16mph /  25.7km/h 89% 0.00in /  0mm 74 W/m2
13:09 57.9 °F /  14.4 °C 55.7 °F /  13.2 °C 29.47in /  997.9hPa SSW 5.9mph /  9.5km/h 18mph /  29km/h 89.4% 0.00in /  0mm 77 W/m2
13:14 57.7 °F /  14.3 °C 55.8 °F /  13.2 °C 29.47in /  997.9hPa SW 6.8mph /  10.9km/h 15mph /  24.1km/h 90% 0.00in /  0mm 113 W/m2
13:19 57.9 °F /  14.4 °C 55.9 °F /  13.3 °C 29.47in /  997.9hPa South 5.6mph /  9km/h 11mph /  17.7km/h 90% 0.00in /  0mm 114 W/m2
13:24 57.9 °F /  14.4 °C 55.9 °F /  13.3 °C 29.47in /  997.9hPa South 7.1mph /  11.4km/h 16mph /  25.7km/h 90% 0.00in /  0mm 100 W/m2
13:29 58.2 °F /  14.6 °C 56.2 °F /  13.4 °C 29.46in /  997.5hPa SW 7.9mph /  12.7km/h 20mph /  32.2km/h 90% 0.00in /  0mm 83 W/m2
13:34 58.3 °F /  14.6 °C 56.3 °F /  13.5 °C 29.46in /  997.5hPa SSW 7.6mph /  12.2km/h 20mph /  32.2km/h 90% 0.00in /  0mm 109 W/m2
13:39 58.5 °F /  14.7 °C 56.5 °F /  13.6 °C 29.45in /  997.2hPa SW 11mph /  17.7km/h 26mph /  41.8km/h 90% 0.00in /  0mm 114 W/m2
13:44 58.5 °F /  14.7 °C 56.5 °F /  13.6 °C 29.45in /  997.2hPa WSW 8.6mph /  13.8km/h 27mph /  43.5km/h 90% 0.00in /  0mm 111 W/m2
13:49 58.3 °F /  14.6 °C 56.3 °F /  13.5 °C 29.45in /  997.2hPa SW 8.7mph /  14km/h 20mph /  32.2km/h 90% 0.00in /  0mm 139 W/m2
13:54 58.5 °F /  14.7 °C 56.4 °F /  13.6 °C 29.44in /  996.8hPa SSW 5.2mph /  8.4km/h 21mph /  33.8km/h 89.8% 0.00in /  0mm 162 W/m2
13:59 58.6 °F /  14.8 °C 56.3 °F /  13.5 °C 29.44in /  996.8hPa SSW 7.4mph /  11.9km/h 17mph /  27.4km/h 89% 0.00in /  0mm 206 W/m2
14:04 58.7 °F /  14.8 °C 56.4 °F /  13.6 °C 29.43in /  996.5hPa SW 9.6mph /  15.4km/h 23mph /  37km/h 89% 0.00in /  0mm 148 W/m2
14:09 58.8 °F /  14.9 °C 56.4 °F /  13.6 °C 29.43in /  996.5hPa SSW 6.5mph /  10.5km/h 21mph /  33.8km/h 88.8% 0.00in /  0mm 118 W/m2
14:14 58.9 °F /  14.9 °C 56.2 °F /  13.4 °C 29.43in /  996.5hPa SW 14.8mph /  23.8km/h 28mph /  45.1km/h 88% 0.00in /  0mm 155 W/m2
14:19 59.1 °F /  15.1 °C 56.4 °F /  13.6 °C 29.42in /  996.2hPa South 12.1mph /  19.5km/h 21mph /  33.8km/h 88% 0.00in /  0mm 107 W/m2
14:24 58.9 °F /  14.9 °C 55.9 °F /  13.3 °C 29.42in /  996.2hPa SW 10.8mph /  17.4km/h 28mph /  45.1km/h 87.2% 0.00in /  0mm 90 W/m2
14:29 58.6 °F /  14.8 °C 55.9 °F /  13.3 °C 29.42in /  996.2hPa SSW 10.6mph /  17.1km/h 25mph /  40.2km/h 88% 0.00in /  0mm 93 W/m2
14:34 58.5 °F /  14.7 °C 55.9 °F /  13.3 °C 29.41in /  995.8hPa South 14.2mph /  22.9km/h 27mph /  43.5km/h 88.4% 0.00in /  0mm 97 W/m2
14:39 58.5 °F /  14.7 °C 56.1 °F /  13.4 °C 29.41in /  995.8hPa SW 8.1mph /  13km/h 24mph /  38.6km/h 89% 0.00in /  0mm 120 W/m2
14:44 58.4 °F /  14.7 °C 56 °F /  13.3 °C 29.41in /  995.8hPa SSW 9.6mph /  15.4km/h 25mph /  40.2km/h 89% 0.00in /  0mm 72 W/m2
14:49 58.2 °F /  14.6 °C 55.8 °F /  13.2 °C 29.40in /  995.5hPa South 9.2mph /  14.8km/h 25mph /  40.2km/h 89% 0.00in /  0mm 74 W/m2
14:54 58.3 °F /  14.6 °C 55.9 °F /  13.3 °C 29.41in /  995.8hPa South 11mph /  17.7km/h 26mph /  41.8km/h 89% 0.00in /  0mm 54 W/m2
14:59 58.3 °F /  14.6 °C 55.9 °F /  13.3 °C 29.41in /  995.8hPa SSW 17.2mph /  27.7km/h 32mph /  51.5km/h 89% 0.00in /  0mm 70 W/m2
15:04 58.5 °F /  14.7 °C 56 °F /  13.3 °C 29.40in /  995.5hPa SW 13.2mph /  21.2km/h 32mph /  51.5km/h 88.8% 0.00in /  0mm 76 W/m2
15:09 58.5 °F /  14.7 °C 55.8 °F /  13.2 °C 29.40in /  995.5hPa SSW 14.2mph /  22.9km/h 31mph /  49.9km/h 88% 0.01in /  0.25mm 77 W/m2
15:14 58.3 °F /  14.6 °C 55.7 °F /  13.2 °C 29.40in /  995.5hPa SW 13.8mph /  22.2km/h 25mph /  40.2km/h 88.5% 0.01in /  0.25mm 88 W/m2
15:19 58.1 °F /  14.5 °C 55.8 °F /  13.2 °C 29.40in /  995.5hPa SW 11.4mph /  18.3km/h 23mph /  37km/h 89% 0.02in /  0.51mm 69 W/m2
15:24 57.9 °F /  14.4 °C 55.6 °F /  13.1 °C 29.39in /  995.1hPa SSW 10mph /  16.1km/h 20mph /  32.2km/h 89% 0.02in /  0.51mm 56 W/m2
15:29 57.7 °F /  14.3 °C 55.5 °F /  13.1 °C 29.39in /  995.1hPa SSW 6.4mph /  10.3km/h 18mph /  29km/h 89.2% 0.02in /  0.51mm 72 W/m2
15:34 57.7 °F /  14.3 °C 55.7 °F /  13.2 °C 29.40in /  995.5hPa SW 7.8mph /  12.6km/h 14mph /  22.5km/h 89.8% 0.01in /  0.25mm 60 W/m2
15:39 57.7 °F /  14.3 °C 55.8 °F /  13.2 °C 29.40in /  995.5hPa SW 6.5mph /  10.5km/h 12mph /  19.3km/h 90% 0.01in /  0.25mm 91 W/m2
15:44 57.6 °F /  14.2 °C 55.7 °F /  13.2 °C 29.39in /  995.1hPa South 7.2mph /  11.6km/h 21mph /  33.8km/h 90% 0.01in /  0.25mm 90 W/m2
15:49 57.3 °F /  14.1 °C 55 °F /  12.8 °C 29.39in /  995.1hPa SW 8.2mph /  13.2km/h 21mph /  33.8km/h 89.2% 0.01in /  0.25mm 105 W/m2
15:54 57.2 °F /  14 °C 54.5 °F /  12.5 °C 29.39in /  995.1hPa SW 8.1mph /  13km/h 18mph /  29km/h 88.2% 0.01in /  0.25mm 100 W/m2
15:59 57 °F /  13.9 °C 54.3 °F /  12.4 °C 29.39in /  995.1hPa SW 6.1mph /  9.8km/h 15mph /  24.1km/h 88% 0.02in /  0.51mm 62 W/m2
16:04 57 °F /  13.9 °C 54.3 °F /  12.4 °C 29.39in /  995.1hPa SW 5.1mph /  8.2km/h 11mph /  17.7km/h 88% 0.02in /  0.51mm 39 W/m2
16:09 57 °F /  13.9 °C 54.3 °F /  12.4 °C 29.39in /  995.1hPa SSW 9.4mph /  15.1km/h 18mph /  29km/h 88% 0.02in /  0.51mm 44 W/m2
16:14 56.9 °F /  13.8 °C 54.2 °F /  12.3 °C 29.38in /  994.8hPa SW 5.1mph /  8.2km/h 16mph /  25.7km/h 88% 0.01in /  0.25mm 49 W/m2
16:19 56.8 °F /  13.8 °C 54.1 °F /  12.3 °C 29.38in /  994.8hPa SW 7.9mph /  12.7km/h 15mph /  24.1km/h 87.8% 0.01in /  0.25mm 42 W/m2
16:24 56.8 °F /  13.8 °C 54 °F /  12.2 °C 29.38in /  994.8hPa SSW 4.7mph /  7.6km/h 10mph /  16.1km/h 87.3% 0.00in /  0mm 35 W/m2
16:29 56.7 °F /  13.7 °C 53.9 °F /  12.2 °C 29.37in /  994.5hPa SSW 6.6mph /  10.6km/h 13mph /  20.9km/h 87.4% 0.00in /  0mm 35 W/m2
16:34 56.5 °F /  13.6 °C 53.6 °F /  12 °C 29.37in /  994.5hPa SW 7.2mph /  11.6km/h 17mph /  27.4km/h 87% 0.00in /  0mm 42 W/m2
16:39 56.4 °F /  13.6 °C 53.5 °F /  11.9 °C 29.37in /  994.5hPa WSW 10.2mph /  16.4km/h 15mph /  24.1km/h 87.2% 0.00in /  0mm 46 W/m2
16:44 56.3 °F /  13.5 °C 53.4 °F /  11.9 °C 29.37in /  994.5hPa SW 6.4mph /  10.3km/h 17mph /  27.4km/h 87.2% 0.00in /  0mm 40 W/m2
16:49 56.1 °F /  13.4 °C 53.3 °F /  11.8 °C 29.36in /  994.1hPa SW 7mph /  11.3km/h 17mph /  27.4km/h 87.4% 0.00in /  0mm 18 W/m2
16:54 56.1 °F /  13.4 °C 53.2 °F /  11.8 °C 29.37in /  994.5hPa SSW 9.4mph /  15.1km/h 22mph /  35.4km/h 87% 0.00in /  0mm 21 W/m2
16:59 56.1 °F /  13.4 °C 53 °F /  11.7 °C 29.37in /  994.5hPa SW 9.6mph /  15.4km/h 26mph /  41.8km/h 86.4% 0.00in /  0mm 32 W/m2
17:04 56.1 °F /  13.4 °C 52.9 °F /  11.6 °C 29.37in /  994.5hPa SW 9mph /  14.5km/h 20mph /  32.2km/h 86% 0.00in /  0mm 28 W/m2
17:09 56.1 °F /  13.4 °C 52.9 °F /  11.6 °C 29.36in /  994.1hPa SW 12.6mph /  20.3km/h 20mph /  32.2km/h 86% 0.00in /  0mm 23 W/m2
17:14 55.9 °F /  13.3 °C 52.7 °F /  11.5 °C 29.36in /  994.1hPa SSW 8.8mph /  14.2km/h 20mph /  32.2km/h 86% 0.00in /  0mm 16 W/m2
17:19 55.9 °F /  13.3 °C 52.7 °F /  11.5 °C 29.36in /  994.1hPa SW 4.4mph /  7.1km/h 16mph /  25.7km/h 86% 0.00in /  0mm 9 W/m2
17:24 55.8 °F /  13.2 °C 52.5 °F /  11.4 °C 29.36in /  994.1hPa WSW 8.2mph /  13.2km/h 17mph /  27.4km/h 86% 0.00in /  0mm 7 W/m2
17:29 55.8 °F /  13.2 °C 52.5 °F /  11.4 °C 29.36in /  994.1hPa SSW 6mph /  9.7km/h 17mph /  27.4km/h 86% 0.00in /  0mm 7 W/m2
17:34 55.8 °F /  13.2 °C 52.2 °F /  11.2 °C 29.36in /  994.1hPa SSW 6.4mph /  10.3km/h 16mph /  25.7km/h 85% 0.00in /  0mm 5 W/m2
17:39 55.6 °F /  13.1 °C 52.1 °F /  11.2 °C 29.35in /  993.8hPa SW 8.4mph /  13.5km/h 16mph /  25.7km/h 85.4% 0.00in /  0mm 5 W/m2
17:44 55.6 °F /  13.1 °C 52.1 °F /  11.2 °C 29.35in /  993.8hPa SW 6mph /  9.7km/h 13mph /  20.9km/h 85.2% 0.00in /  0mm 0 W/m2
17:49 55.6 °F /  13.1 °C 52.3 °F /  11.3 °C 29.35in /  993.8hPa SW 6.6mph /  10.6km/h 11mph /  17.7km/h 86% 0.00in /  0mm 0 W/m2
17:54 55.5 °F /  13.1 °C 52.2 °F /  11.2 °C 29.35in /  993.8hPa SW 7.1mph /  11.4km/h 10mph /  16.1km/h 86% 0.00in /  0mm 0 W/m2
17:59 55.3 °F /  12.9 °C 51.9 °F /  11.1 °C 29.34in /  993.5hPa SSW 6mph /  9.7km/h 13mph /  20.9km/h 85.6% 0.00in /  0mm 0 W/m2
18:04 55.2 °F /  12.9 °C 52 °F /  11.1 °C 29.34in /  993.5hPa South 6.6mph /  10.6km/h 13mph /  20.9km/h 86% 0.00in /  0mm 0 W/m2
18:09 55.1 °F /  12.8 °C 51.9 °F /  11.1 °C 29.34in /  993.5hPa SSW 5.7mph /  9.2km/h 15mph /  24.1km/h 86% 0.00in /  0mm 0 W/m2
18:14 55 °F /  12.8 °C 51.8 °F /  11 °C 29.34in /  993.5hPa SW 5.6mph /  9km/h 13mph /  20.9km/h 86% 0.00in /  0mm 0 W/m2
18:19 55 °F /  12.8 °C 51.8 °F /  11 °C 29.34in /  993.5hPa SW 5.6mph /  9km/h 17mph /  27.4km/h 86% 0.00in /  0mm 0 W/m2
18:24 55 °F /  12.8 °C 51.8 °F /  11 °C 29.34in /  993.5hPa SSW 6.7mph /  10.8km/h 12mph /  19.3km/h 86% 0.00in /  0mm 0 W/m2
18:29 55 °F /  12.8 °C 51.9 °F /  11.1 °C 29.34in /  993.5hPa SW 6.6mph /  10.6km/h 13mph /  20.9km/h 86.2% 0.00in /  0mm 0 W/m2
18:34 55 °F /  12.8 °C 52.1 °F /  11.2 °C 29.34in /  993.5hPa SW 5.2mph /  8.4km/h 11mph /  17.7km/h 87% 0.00in /  0mm 0 W/m2
18:39 54.9 °F /  12.7 °C 52 °F /  11.1 °C 29.34in /  993.5hPa SSW 7.1mph /  11.4km/h 15mph /  24.1km/h 87% 0.01in /  0.25mm 0 W/m2
18:44 54.9 °F /  12.7 °C 52.1 °F /  11.2 °C 29.33in /  993.1hPa SW 8mph /  12.9km/h 12mph /  19.3km/h 87.2% 0.01in /  0.25mm 0 W/m2
18:49 54.9 °F /  12.7 °C 52.3 °F /  11.3 °C 29.33in /  993.1hPa SSW 5.3mph /  8.5km/h 17mph /  27.4km/h 88% 0.01in /  0.25mm 0 W/m2
18:54 54.9 °F /  12.7 °C 52.3 °F /  11.3 °C 29.34in /  993.5hPa SW 4.8mph /  7.7km/h 11mph /  17.7km/h 88% 0.01in /  0.25mm 0 W/m2
18:59 54.9 °F /  12.7 °C 52.4 °F /  11.3 °C 29.34in /  993.5hPa SSW 4.6mph /  7.4km/h 8mph /  12.9km/h 88.8% 0.01in /  0.25mm 0 W/m2
19:04 54.7 °F /  12.6 °C 52.3 °F /  11.3 °C 29.34in /  993.5hPa SW 7.8mph /  12.6km/h 12mph /  19.3km/h 89% 0.01in /  0.25mm 0 W/m2
19:09 54.7 °F /  12.6 °C 52.3 °F /  11.3 °C 29.34in /  993.5hPa SW 7.6mph /  12.2km/h 14mph /  22.5km/h 89% 0.02in /  0.51mm 0 W/m2
19:14 54.7 °F /  12.6 °C 52.3 °F /  11.3 °C 29.34in /  993.5hPa WSW 7.8mph /  12.6km/h 15mph /  24.1km/h 89% 0.02in /  0.51mm 0 W/m2
19:19 54.6 °F /  12.6 °C 52.3 °F /  11.3 °C 29.34in /  993.5hPa West 6.2mph /  10km/h 16mph /  25.7km/h 89% 0.03in /  0.76mm 0 W/m2
19:24 54.3 °F /  12.4 °C 52.2 °F /  11.2 °C 29.35in /  993.8hPa West 6.3mph /  10.1km/h 12mph /  19.3km/h 89.8% 0.04in /  1.02mm 0 W/m2
19:29 54.1 °F /  12.3 °C 52.1 °F /  11.2 °C 29.35in /  993.8hPa West 6.8mph /  10.9km/h 12mph /  19.3km/h 90% 0.04in /  1.02mm 0 W/m2
19:34 54 °F /  12.2 °C 52 °F /  11.1 °C 29.35in /  993.8hPa WNW 7.6mph /  12.2km/h 11mph /  17.7km/h 90% 0.04in /  1.02mm 0 W/m2
19:39 53.7 °F /  12.1 °C 51.8 °F /  11 °C 29.34in /  993.5hPa WNW 4.9mph /  7.9km/h 12mph /  19.3km/h 90.2% 0.05in /  1.27mm 0 W/m2
19:44 53.4 °F /  11.9 °C 51.8 °F /  11 °C 29.34in /  993.5hPa WNW 3.8mph /  6.1km/h 11mph /  17.7km/h 91% 0.06in /  1.52mm 0 W/m2
19:49 53.1 °F /  11.7 °C 51.4 °F /  10.8 °C 29.35in /  993.8hPa WNW 7.6mph /  12.2km/h 14mph /  22.5km/h 91% 0.06in /  1.52mm 0 W/m2
19:54 52.9 °F /  11.6 °C 51.3 °F /  10.7 °C 29.35in /  993.8hPa West 4.4mph /  7.1km/h 10mph /  16.1km/h 91% 0.06in /  1.52mm 0 W/m2
19:59 52.6 °F /  11.4 °C 51 °F /  10.6 °C 29.35in /  993.8hPa West 4.9mph /  7.9km/h 10mph /  16.1km/h 91% 0.06in /  1.52mm 0 W/m2
20:04 52.6 °F /  11.4 °C 51 °F /  10.6 °C 29.34in /  993.5hPa West 2.4mph /  3.9km/h 10mph /  16.1km/h 91% 0.07in /  1.78mm 0 W/m2
20:09 52.8 °F /  11.6 °C 51.3 °F /  10.7 °C 29.34in /  993.5hPa SSW 2.4mph /  3.9km/h 6mph /  9.7km/h 91.8% 0.07in /  1.78mm 0 W/m2
20:14 52.7 °F /  11.5 °C 51.3 °F /  10.7 °C 29.33in /  993.1hPa SSW 3.3mph /  5.3km/h 7mph /  11.3km/h 92% 0.07in /  1.78mm 0 W/m2
20:19 52.5 °F /  11.4 °C 51.1 °F /  10.6 °C 29.34in /  993.5hPa WSW 2.1mph /  3.4km/h 7mph /  11.3km/h 92% 0.06in /  1.52mm 0 W/m2
20:24 52.5 °F /  11.4 °C 51.1 °F /  10.6 °C 29.34in /  993.5hPa West 4.1mph /  6.6km/h 9mph /  14.5km/h 92% 0.05in /  1.27mm 0 W/m2
20:29 52.3 °F /  11.3 °C 50.9 °F /  10.5 °C 29.34in /  993.5hPa West 3.3mph /  5.3km/h 7mph /  11.3km/h 92% 0.05in /  1.27mm 0 W/m2
20:34 52.3 °F /  11.3 °C 50.9 °F /  10.5 °C 29.34in /  993.5hPa WSW 4mph /  6.4km/h 8mph /  12.9km/h 92% 0.05in /  1.27mm 0 W/m2
20:39 52.3 °F /  11.3 °C 50.9 °F /  10.5 °C 29.34in /  993.5hPa SW 3.6mph /  5.8km/h 7mph /  11.3km/h 92% 0.04in /  1.02mm 0 W/m2
20:44 52.2 °F /  11.2 °C 50.7 °F /  10.4 °C 29.35in /  993.8hPa SW 3.8mph /  6.1km/h 7mph /  11.3km/h 92% 0.04in /  1.02mm 0 W/m2
20:49 52.2 °F /  11.2 °C 50.7 °F /  10.4 °C 29.34in /  993.5hPa SW 1.6mph /  2.6km/h 6mph /  9.7km/h 92% 0.03in /  0.76mm 0 W/m2
20:54 52.2 °F /  11.2 °C 50.7 °F /  10.4 °C 29.34in /  993.5hPa SW 2.4mph /  3.9km/h 4mph /  6.4km/h 92% 0.03in /  0.76mm 0 W/m2
20:59 52.1 °F /  11.2 °C 50.6 °F /  10.3 °C 29.34in /  993.5hPa SW 1.7mph /  2.7km/h 5mph /  8km/h 92% 0.03in /  0.76mm 0 W/m2
21:04 52.1 °F /  11.2 °C 50.6 °F /  10.3 °C 29.34in /  993.5hPa SW 1.2mph /  1.9km/h 5mph /  8km/h 92% 0.02in /  0.51mm 0 W/m2
21:09 52 °F /  11.1 °C 50.5 °F /  10.3 °C 29.33in /  993.1hPa SW 1.5mph /  2.4km/h 5mph /  8km/h 92% 0.02in /  0.51mm 0 W/m2
21:14 52 °F /  11.1 °C 50.5 °F /  10.3 °C 29.33in /  993.1hPa West 2.4mph /  3.9km/h 5mph /  8km/h 92% 0.02in /  0.51mm 0 W/m2
21:19 51.9 °F /  11.1 °C 50.5 °F /  10.3 °C 29.34in /  993.5hPa West 4.4mph /  7.1km/h 8mph /  12.9km/h 92% 0.04in /  1.02mm 0 W/m2
21:24 51.8 °F /  11 °C 50.3 °F /  10.2 °C 29.34in /  993.5hPa WNW 4.4mph /  7.1km/h 10mph /  16.1km/h 92% 0.11in /  2.79mm 0 W/m2
21:29 51.1 °F /  10.6 °C 49.7 °F /  9.8 °C 29.34in /  993.5hPa West 10.8mph /  17.4km/h 17mph /  27.4km/h 92% 0.13in /  3.3mm 0 W/m2
21:34 50.8 °F /  10.4 °C 49.5 °F /  9.7 °C 29.34in /  993.5hPa West 8.1mph /  13km/h 14mph /  22.5km/h 92% 0.17in /  4.32mm 0 W/m2
21:39 50.7 °F /  10.4 °C 49.5 °F /  9.7 °C 29.34in /  993.5hPa WSW 8.7mph /  14km/h 16mph /  25.7km/h 92% 0.19in /  4.83mm 0 W/m2
21:44 51.1 °F /  10.6 °C 49.6 °F /  9.8 °C 29.34in /  993.5hPa WSW 6.7mph /  10.8km/h 15mph /  24.1km/h 92% 0.20in /  5.08mm 0 W/m2
21:49 50.9 °F /  10.5 °C 49.6 °F /  9.8 °C 29.34in /  993.5hPa WSW 4.7mph /  7.6km/h 12mph /  19.3km/h 92% 0.20in /  5.08mm 0 W/m2
21:54 50.9 °F /  10.5 °C 49.6 °F /  9.8 °C 29.35in /  993.8hPa WSW 9.2mph /  14.8km/h 15mph /  24.1km/h 92% 0.19in /  4.83mm 0 W/m2
21:59 51 °F /  10.6 °C 49.6 °F /  9.8 °C 29.35in /  993.8hPa WSW 7.8mph /  12.6km/h 18mph /  29km/h 92% 0.19in /  4.83mm 0 W/m2
22:04 51.1 °F /  10.6 °C 49.6 °F /  9.8 °C 29.36in /  994.1hPa WSW 5.2mph /  8.4km/h 18mph /  29km/h 92% 0.19in /  4.83mm 0 W/m2
22:09 51.2 °F /  10.7 °C 49.7 °F /  9.8 °C 29.36in /  994.1hPa WSW 4.9mph /  7.9km/h 10mph /  16.1km/h 92% 0.19in /  4.83mm 0 W/m2
22:14 51.3 °F /  10.7 °C 49.8 °F /  9.9 °C 29.35in /  993.8hPa SW 4.2mph /  6.8km/h 9mph /  14.5km/h 92% 0.19in /  4.83mm 0 W/m2
22:19 51.3 °F /  10.7 °C 49.8 °F /  9.9 °C 29.35in /  993.8hPa WSW 3.5mph /  5.6km/h 6mph /  9.7km/h 92% 0.19in /  4.83mm 0 W/m2
22:24 51.3 °F /  10.7 °C 49.8 °F /  9.9 °C 29.35in /  993.8hPa WSW 4.1mph /  6.6km/h 7mph /  11.3km/h 92% 0.16in /  4.06mm 0 W/m2
22:29 51.3 °F /  10.7 °C 49.8 °F /  9.9 °C 29.35in /  993.8hPa WSW 4.2mph /  6.8km/h 9mph /  14.5km/h 92% 0.08in /  2.03mm 0 W/m2
22:34 51.3 °F /  10.7 °C 49.8 °F /  9.9 °C 29.35in /  993.8hPa WSW 5mph /  8km/h 9mph /  14.5km/h 92% 0.07in /  1.78mm 0 W/m2
22:39 51.3 °F /  10.7 °C 49.8 °F /  9.9 °C 29.36in /  994.1hPa WSW 3.6mph /  5.8km/h 8mph /  12.9km/h 92% 0.02in /  0.51mm 0 W/m2
22:44 51.3 °F /  10.7 °C 49.6 °F /  9.8 °C 29.36in /  994.1hPa WSW 4.4mph /  7.1km/h 13mph /  20.9km/h 91% 0.01in /  0.25mm 0 W/m2
22:49 51.1 °F /  10.6 °C 49.5 °F /  9.7 °C 29.36in /  994.1hPa WSW 6.5mph /  10.5km/h 12mph /  19.3km/h 91% 0.00in /  0mm 0 W/m2
22:54 51.2 °F /  10.7 °C 49.6 °F /  9.8 °C 29.36in /  994.1hPa SW 6mph /  9.7km/h 12mph /  19.3km/h 91% 0.00in /  0mm 0 W/m2
22:59 50.9 °F /  10.5 °C 49.3 °F /  9.6 °C 29.36in /  994.1hPa SW 9.2mph /  14.8km/h 13mph /  20.9km/h 91% 0.00in /  0mm 0 W/m2
23:04 50.7 °F /  10.4 °C 49.1 °F /  9.5 °C 29.36in /  994.1hPa WSW 4.4mph /  7.1km/h 10mph /  16.1km/h 90.8% 0.00in /  0mm 0 W/m2
23:09 50.7 °F /  10.4 °C 48.7 °F /  9.3 °C 29.36in /  994.1hPa WSW 4.5mph /  7.2km/h 9mph /  14.5km/h 90% 0.00in /  0mm 0 W/m2
23:14 50.6 °F /  10.3 °C 48.7 °F /  9.3 °C 29.37in /  994.5hPa West 4.9mph /  7.9km/h 9mph /  14.5km/h 90% 0.00in /  0mm 0 W/m2
23:19 50.5 °F /  10.3 °C 48.5 °F /  9.2 °C 29.37in /  994.5hPa West 4.5mph /  7.2km/h 8mph /  12.9km/h 90% 0.00in /  0mm 0 W/m2
23:24 50.2 °F /  10.1 °C 48.2 °F /  9 °C 29.37in /  994.5hPa WNW 3.1mph /  5km/h 9mph /  14.5km/h 90% 0.00in /  0mm 0 W/m2
23:29 50 °F /  10 °C 48 °F /  8.9 °C 29.37in /  994.5hPa WSW 4.4mph /  7.1km/h 9mph /  14.5km/h 90% 0.00in /  0mm 0 W/m2
23:34 50 °F /  10 °C 48 °F /  8.9 °C 29.38in /  994.8hPa West 4mph /  6.4km/h 9mph /  14.5km/h 90% 0.00in /  0mm 0 W/m2
23:39 49.8 °F /  9.9 °C 47.8 °F /  8.8 °C 29.38in /  994.8hPa West 3.2mph /  5.1km/h 6mph /  9.7km/h 90% 0.00in /  0mm 0 W/m2
23:44 49.8 °F /  9.9 °C 47.8 °F /  8.8 °C 29.38in /  994.8hPa West 3.5mph /  5.6km/h 7mph /  11.3km/h 90% 0.00in /  0mm 0 W/m2
23:49 49.8 °F /  9.9 °C 47.8 °F /  8.8 °C 29.38in /  994.8hPa WSW 2.5mph /  4km/h 6mph /  9.7km/h 90% 0.00in /  0mm 0 W/m2
23:54 49.6 °F /  9.8 °C 47.7 °F /  8.7 °C 29.38in /  994.8hPa West 2.9mph /  4.7km/h 7mph /  11.3km/h 90% 0.00in /  0mm 0 W/m2
23:59 49.5 °F /  9.7 °C 47.8 °F /  8.8 °C 29.38in /  994.8hPa WSW 3.3mph /  5.3km/h 8mph /  12.9km/h 90.6% 0.00in /  0mm 0 W/m2
Bath Spa Weather
Compliments of Weather Underground - 2 mb